Time;durP1;ratioP1;P1;durP2;ratioP2;P2;SDS_P1;SDS_P2;PMS_P1;PMS_P2;Temp;Humidity;BMP_temperature;BMP_pressure;BME280_temperature;BME280_humidity;BME280_pressure;Samples;Min_cycle;Max_cycle;Signal;HPM_P1;HPM_P2
2021/05/23 00:00:10;;;;;;;2.70;1.45;;;6.20;99.90;;;;;;5077887;28;20544;-81
2021/05/23 00:02:37;;;;;;;2.95;1.33;;;6.20;99.90;;;;;;5077857;28;20080;-82
2021/05/23 00:05:06;;;;;;;2.78;1.50;;;6.10;99.90;;;;;;5080170;28;20079;-80
2021/05/23 00:07:37;;;;;;;5.32;1.67;;;6.00;99.90;;;;;;5080058;28;20044;-80
2021/05/23 00:10:07;;;;;;;2.45;1.40;;;6.10;99.90;;;;;;5079249;28;20071;-81
2021/05/23 00:12:33;;;;;;;2.45;1.30;;;6.00;99.90;;;;;;5079217;28;20127;-81
2021/05/23 00:15:00;;;;;;;5.75;1.73;;;6.00;99.90;;;;;;5078742;28;20131;-80
2021/05/23 00:17:27;;;;;;;2.80;1.23;;;6.00;99.90;;;;;;5079945;28;20087;-82
2021/05/23 00:19:54;;;;;;;3.78;1.42;;;6.00;99.90;;;;;;5080575;28;20045;-82
2021/05/23 00:22:20;;;;;;;5.13;1.27;;;5.90;99.90;;;;;;5079324;28;20049;-81
2021/05/23 00:24:47;;;;;;;5.80;1.50;;;6.00;99.90;;;;;;5080421;28;20497;-81
2021/05/23 00:27:14;;;;;;;8.40;1.63;;;6.00;99.90;;;;;;5078352;28;20084;-80
2021/05/23 00:29:41;;;;;;;5.40;1.20;;;6.00;99.90;;;;;;5078040;28;20064;-81
2021/05/23 00:32:08;;;;;;;2.80;1.25;;;6.10;99.90;;;;;;5079124;28;20044;-80
2021/05/23 00:34:35;;;;;;;5.50;1.45;;;6.00;99.90;;;;;;5078636;28;20083;-80
2021/05/23 00:37:01;;;;;;;5.00;1.77;;;6.00;99.90;;;;;;5078887;28;20135;-81
2021/05/23 00:39:28;;;;;;;5.53;1.60;;;6.00;99.90;;;;;;5078302;28;20052;-80
2021/05/23 00:41:55;;;;;;;4.13;1.40;;;5.90;99.90;;;;;;5078109;28;20091;-81
2021/05/23 00:44:22;;;;;;;3.78;1.20;;;5.90;99.90;;;;;;5077980;28;20080;-81
2021/05/23 00:46:49;;;;;;;2.72;1.30;;;5.80;99.90;;;;;;5077961;28;20123;-80
2021/05/23 00:49:16;;;;;;;2.95;1.33;;;5.70;99.90;;;;;;5077670;28;20051;-81
2021/05/23 00:51:43;;;;;;;5.55;2.47;;;5.50;99.90;;;;;;5077379;28;20067;-80
2021/05/23 00:54:10;;;;;;;3.75;1.23;;;5.50;99.90;;;;;;5077072;28;20072;-80
2021/05/23 00:56:37;;;;;;;4.72;1.40;;;5.40;99.90;;;;;;5075342;28;20084;-81
2021/05/23 00:59:04;;;;;;;4.35;1.55;;;5.30;99.90;;;;;;5074774;28;20087;-80
2021/05/23 01:01:46;;;;;;;3.00;1.60;;;5.40;99.90;;;;;;5075330;28;20098;-80
2021/05/23 01:04:14;;;;;;;3.33;1.30;;;5.30;99.90;;;;;;5075982;28;20080;-80
2021/05/23 01:06:40;;;;;;;2.67;1.30;;;5.30;99.90;;;;;;5075153;28;20078;-80
2021/05/23 01:09:09;;;;;;;13.63;1.70;;;5.20;99.90;;;;;;5076581;28;20454;-80
2021/05/23 01:11:42;;;;;;;4.45;1.52;;;5.20;99.90;;;;;;5075592;28;20075;-80
2021/05/23 01:14:40;;;;;;;1.63;1.23;;;5.20;99.90;;;;;;5076124;28;20072;-79
2021/05/23 01:17:09;;;;;;;4.55;1.45;;;5.20;99.90;;;;;;5076595;28;20113;-79
2021/05/23 01:20:01;;;;;;;2.35;1.40;;;5.10;99.90;;;;;;5076546;28;20059;-80
2021/05/23 01:22:37;;;;;;;4.47;1.17;;;5.00;99.90;;;;;;5075208;28;20049;-80
2021/05/23 01:25:17;;;;;;;6.78;1.73;;;5.10;99.90;;;;;;5074786;28;20136;-80
2021/05/23 01:27:48;;;;;;;6.07;1.48;;;5.20;99.90;;;;;;5074981;28;20044;-80
2021/05/23 01:30:23;;;;;;;2.22;1.58;;;5.10;99.90;;;;;;5075146;28;20075;-80
2021/05/23 01:32:54;;;;;;;3.83;1.58;;;5.10;99.90;;;;;;5074104;28;20072;-80
2021/05/23 01:35:33;;;;;;;4.85;1.50;;;5.10;99.90;;;;;;5073944;28;20079;-80
2021/05/23 01:38:00;;;;;;;5.00;1.58;;;5.10;99.90;;;;;;5074787;28;20095;-80
2021/05/23 01:40:30;;;;;;;3.45;1.20;;;5.10;99.90;;;;;;5073431;28;20527;-80
2021/05/23 01:42:58;;;;;;;6.55;1.20;;;5.00;99.90;;;;;;5073286;28;20132;-80
2021/05/23 01:45:26;;;;;;;4.05;1.60;;;5.00;99.90;;;;;;5074958;28;20489;-80
2021/05/23 01:47:54;;;;;;;8.27;1.58;;;5.00;99.90;;;;;;5074713;28;20460;-80
2021/05/23 01:50:21;;;;;;;2.65;1.52;;;5.10;99.90;;;;;;5074760;28;20079;-80
2021/05/23 01:52:50;;;;;;;3.80;1.50;;;5.10;99.90;;;;;;5074064;28;20504;-79
2021/05/23 01:55:17;;;;;;;4.55;1.35;;;5.10;99.90;;;;;;5072848;28;20052;-80
2021/05/23 01:57:44;;;;;;;6.53;1.40;;;5.10;99.90;;;;;;5076834;28;20127;-80
2021/05/23 02:00:13;;;;;;;4.07;1.58;;;5.10;99.90;;;;;;5084943;28;20056;-80
2021/05/23 02:02:40;;;;;;;7.47;1.23;;;5.10;99.90;;;;;;5078610;28;20104;-81
2021/05/23 02:05:07;;;;;;;4.88;1.60;;;5.20;99.90;;;;;;5078978;28;20444;-81
2021/05/23 02:07:35;;;;;;;3.83;1.48;;;5.20;99.90;;;;;;5077993;28;20041;-81
2021/05/23 02:10:10;;;;;;;1.30;1.17;;;5.10;99.90;;;;;;5078233;28;20128;-81
2021/05/23 02:12:38;;;;;;;4.60;1.52;;;5.00;99.90;;;;;;5077794;28;20135;-81
2021/05/23 02:15:06;;;;;;;4.53;1.40;;;5.00;99.90;;;;;;5077885;28;20056;-80
2021/05/23 02:17:37;;;;;;;4.05;1.63;;;4.90;99.90;;;;;;5077885;28;20110;-80
2021/05/23 02:20:06;;;;;;;6.43;1.55;;;4.80;99.90;;;;;;5076287;28;20058;-81
2021/05/23 02:22:38;;;;;;;6.03;1.67;;;4.80;99.90;;;;;;5077259;28;20048;-80
2021/05/23 02:25:07;;;;;;;4.30;1.70;;;4.80;99.90;;;;;;5076568;28;20045;-81
2021/05/23 02:27:41;;;;;;;4.07;1.90;;;5.00;99.90;;;;;;5077107;28;20114;-80
2021/05/23 02:30:14;;;;;;;3.00;1.80;;;5.10;99.90;;;;;;5077001;28;20127;-80
2021/05/23 02:32:41;;;;;;;4.63;1.50;;;5.20;99.90;;;;;;5077087;28;20049;-80
2021/05/23 02:35:09;;;;;;;4.97;1.85;;;5.20;99.90;;;;;;5077186;28;20123;-80
2021/05/23 02:37:37;;;;;;;2.40;1.73;;;5.20;99.90;;;;;;5077401;28;20083;-80
2021/05/23 02:40:10;;;;;;;4.63;1.70;;;5.10;99.90;;;;;;5077572;28;20063;-81
2021/05/23 02:42:37;;;;;;;4.50;1.40;;;5.00;99.90;;;;;;5078012;28;20048;-81
2021/05/23 02:45:06;;;;;;;5.75;1.77;;;5.00;99.90;;;;;;5076177;28;20075;-81
2021/05/23 02:47:33;;;;;;;2.50;1.58;;;5.00;99.90;;;;;;5078131;28;20072;-81
2021/05/23 02:50:03;;;;;;;7.30;2.00;;;5.00;99.90;;;;;;5077635;28;20101;-81
2021/05/23 02:52:30;;;;;;;5.20;1.52;;;5.00;99.90;;;;;;5077483;28;20463;-81
2021/05/23 02:54:57;;;;;;;3.72;1.65;;;5.10;99.90;;;;;;5077476;28;20139;-81
2021/05/23 02:57:24;;;;;;;5.30;1.83;;;5.10;99.90;;;;;;5078604;28;20135;-82
2021/05/23 02:59:51;;;;;;;5.03;1.42;;;5.20;99.90;;;;;;5077324;28;20056;-81
2021/05/23 03:02:18;;;;;;;6.85;1.58;;;5.30;99.90;;;;;;5078800;28;20074;-81
2021/05/23 03:04:45;;;;;;;2.22;1.27;;;5.30;99.90;;;;;;5080751;28;20044;-81
2021/05/23 03:07:12;;;;;;;3.30;1.58;;;5.30;99.90;;;;;;5082112;28;20044;-81
2021/05/23 03:09:39;;;;;;;10.15;1.60;;;5.20;99.90;;;;;;5082761;28;20041;-81
2021/05/23 03:12:06;;;;;;;4.60;1.70;;;5.10;99.90;;;;;;5081676;28;20106;-81
2021/05/23 03:14:33;;;;;;;10.65;1.85;;;5.00;99.90;;;;;;5083317;28;20045;-82
2021/05/23 03:16:59;;;;;;;8.00;1.92;;;5.00;99.90;;;;;;5087120;28;20080;-81
2021/05/23 03:19:26;;;;;;;6.75;1.55;;;4.90;99.90;;;;;;5086970;28;20059;-81
2021/05/23 03:21:53;;;;;;;5.40;1.65;;;4.90;99.90;;;;;;5081163;28;20082;-80
2021/05/23 03:24:20;;;;;;;6.53;2.05;;;4.80;99.90;;;;;;5078613;28;20080;-80
2021/05/23 03:26:47;;;;;;;7.93;2.08;;;4.80;99.90;;;;;;5078357;28;20075;-80
2021/05/23 03:29:13;;;;;;;5.95;1.95;;;4.80;99.90;;;;;;5078518;28;20091;-80
2021/05/23 03:31:40;;;;;;;5.35;1.80;;;4.70;99.90;;;;;;5078157;28;20397;-80
2021/05/23 03:34:07;;;;;;;6.80;2.08;;;4.80;99.90;;;;;;5077770;28;20048;-80
2021/05/23 03:36:33;;;;;;;3.20;2.13;;;4.70;99.90;;;;;;5077700;28;20087;-80
2021/05/23 03:39:00;;;;;;;4.90;2.38;;;4.70;99.90;;;;;;5077740;28;20102;-80
2021/05/23 03:41:27;;;;;;;6.03;2.10;;;4.70;99.90;;;;;;5077415;28;20140;-80
2021/05/23 03:43:53;;;;;;;7.70;2.17;;;4.80;99.90;;;;;;5076297;28;20048;-81
2021/05/23 03:46:20;;;;;;;9.43;2.50;;;4.80;99.90;;;;;;5076743;28;20492;-80
2021/05/23 03:48:47;;;;;;;4.78;2.63;;;4.90;99.90;;;;;;5075970;28;20052;-80
2021/05/23 03:51:14;;;;;;;5.75;2.45;;;4.90;99.90;;;;;;5081282;28;20076;-81
2021/05/23 03:53:41;;;;;;;6.65;2.80;;;5.00;99.90;;;;;;5080958;28;20048;-81
2021/05/23 03:56:07;;;;;;;4.13;2.90;;;5.10;99.90;;;;;;5079605;28;20051;-80
2021/05/23 03:58:34;;;;;;;7.82;2.80;;;5.20;99.90;;;;;;5080677;28;20047;-80
2021/05/23 04:01:02;;;;;;;9.73;3.53;;;5.30;99.90;;;;;;5079172;28;20049;-80
2021/05/23 04:03:29;;;;;;;6.07;2.80;;;5.50;99.90;;;;;;5080211;28;20044;-81
2021/05/23 04:06:00;;;;;;;6.10;2.42;;;5.70;99.90;;;;;;5080120;28;20080;-80
2021/05/23 04:08:27;;;;;;;13.23;2.58;;;5.90;99.90;;;;;;5078292;28;20501;-80
2021/05/23 04:11:03;;;;;;;3.20;1.70;;;6.00;99.90;;;;;;5078901;28;20102;-80
2021/05/23 04:13:33;;;;;;;3.28;1.58;;;6.00;99.90;;;;;;5077257;28;20056;-80
2021/05/23 04:16:00;;;;;;;4.90;1.92;;;6.10;99.90;;;;;;5078767;28;20047;-80
2021/05/23 04:18:26;;;;;;;11.35;2.30;;;6.30;99.90;;;;;;5079298;28;20051;-80
2021/05/23 04:20:53;;;;;;;6.65;3.05;;;6.40;99.90;;;;;;5079205;28;20127;-80
2021/05/23 04:23:20;;;;;;;3.15;1.80;;;6.50;99.90;;;;;;5078848;28;20053;-80
2021/05/23 04:25:47;;;;;;;6.65;1.98;;;6.60;99.90;;;;;;5078432;28;20531;-80
2021/05/23 04:28:13;;;;;;;4.63;1.90;;;6.60;99.90;;;;;;5078561;28;20051;-80
2021/05/23 04:30:40;;;;;;;4.38;1.65;;;6.70;99.90;;;;;;5077030;28;20087;-81
2021/05/23 04:33:07;;;;;;;4.10;1.48;;;6.80;99.90;;;;;;5076701;28;20579;-80
2021/05/23 04:35:34;;;;;;;6.05;2.38;;;6.90;99.90;;;;;;5077716;28;20091;-80
2021/05/23 04:38:01;;;;;;;3.83;1.20;;;7.10;99.90;;;;;;5077094;28;20095;-80
2021/05/23 04:40:28;;;;;;;1.35;1.08;;;7.30;99.90;;;;;;5075793;28;20131;-80
2021/05/23 04:42:55;;;;;;;4.72;1.08;;;7.60;99.90;;;;;;5075185;28;20088;-81
2021/05/23 04:45:35;;;;;;;7.38;1.40;;;7.80;99.90;;;;;;5077039;28;20473;-80
2021/05/23 04:48:02;;;;;;;2.08;1.13;;;7.90;99.90;;;;;;5076549;28;20091;-80
2021/05/23 04:50:29;;;;;;;4.93;1.10;;;8.00;99.90;;;;;;5076665;28;20124;-81
2021/05/23 04:52:56;;;;;;;1.65;0.80;;;8.10;99.90;;;;;;5075056;28;20140;-80
2021/05/23 04:55:23;;;;;;;6.88;1.25;;;8.20;99.90;;;;;;5075886;28;20079;-80
2021/05/23 04:57:50;;;;;;;2.55;0.77;;;8.50;99.90;;;;;;5074673;28;20056;-80
2021/05/23 05:00:17;;;;;;;3.58;0.88;;;8.70;99.90;;;;;;5074734;28;20424;-80
2021/05/23 05:02:44;;;;;;;2.28;0.60;;;8.90;99.90;;;;;;5076274;28;20045;-81
2021/05/23 05:05:12;;;;;;;1.55;1.05;;;9.00;99.90;;;;;;5076238;28;20044;-81
2021/05/23 05:07:41;;;;;;;2.20;0.57;;;9.30;99.90;;;;;;5076638;28;20048;-80
2021/05/23 05:10:09;;;;;;;2.33;0.73;;;9.50;99.90;;;;;;5075507;28;20074;-81
2021/05/23 05:12:35;;;;;;;2.00;0.60;;;9.70;99.90;;;;;;5074720;28;20076;-80
2021/05/23 05:15:04;;;;;;;2.65;0.80;;;10.10;99.90;;;;;;5085114;28;20033;-82
2021/05/23 05:17:30;;;;;;;1.00;0.50;;;10.50;99.90;;;;;;5091302;28;20556;-81
2021/05/23 05:19:58;;;;;;;2.70;0.95;;;11.00;99.90;;;;;;5084624;28;20421;-82
2021/05/23 05:22:25;;;;;;;1.83;0.68;;;11.20;99.90;;;;;;5079787;28;20052;-82
2021/05/23 05:24:51;;;;;;;0.60;0.25;;;11.20;99.90;;;;;;5079457;28;20068;-81
2021/05/23 05:27:20;;;;;;;0.70;0.45;;;11.20;99.90;;;;;;5077069;28;20398;-80
2021/05/23 05:29:47;;;;;;;5.10;0.70;;;11.10;99.90;;;;;;5078358;28;20052;-81
2021/05/23 05:32:14;;;;;;;2.65;0.73;;;11.00;99.90;;;;;;5076436;28;20429;-80
2021/05/23 05:34:41;;;;;;;3.10;0.60;;;11.00;99.90;;;;;;5076861;28;20083;-81
2021/05/23 05:37:09;;;;;;;2.50;0.70;;;10.90;99.90;;;;;;5076181;28;20106;-80
2021/05/23 05:39:36;;;;;;;1.15;0.50;;;10.90;99.90;;;;;;5079085;28;20048;-82
2021/05/23 05:42:03;;;;;;;2.80;0.57;;;11.00;99.90;;;;;;5078997;28;20049;-82
2021/05/23 05:44:30;;;;;;;0.73;0.45;;;11.20;99.90;;;;;;5079092;28;20040;-82
2021/05/23 05:46:56;;;;;;;1.58;0.63;;;11.20;99.90;;;;;;5076607;28;20080;-82
2021/05/23 05:49:23;;;;;;;2.42;0.75;;;11.10;99.90;;;;;;5077471;28;20094;-80
2021/05/23 05:51:50;;;;;;;1.05;0.57;;;11.10;99.90;;;;;;5076477;28;20071;-81
2021/05/23 05:54:17;;;;;;;3.25;0.50;;;11.20;99.90;;;;;;5077696;28;20070;-81
2021/05/23 05:56:44;;;;;;;3.60;0.73;;;11.20;99.90;;;;;;5075995;28;20087;-80
2021/05/23 05:59:11;;;;;;;5.05;1.25;;;11.30;99.90;;;;;;5076173;28;20084;-80
2021/05/23 06:01:37;;;;;;;1.55;0.55;;;11.40;99.90;;;;;;5076755;28;20135;-81
2021/05/23 06:04:04;;;;;;;1.02;0.50;;;11.50;99.90;;;;;;5076827;28;20076;-80
2021/05/23 06:06:31;;;;;;;1.33;0.40;;;11.70;99.90;;;;;;5076604;28;20083;-80
2021/05/23 06:08:58;;;;;;;1.15;0.70;;;11.90;99.90;;;;;;5074848;28;20089;-80
2021/05/23 06:11:33;;;;;;;5.45;1.00;;;12.40;99.90;;;;;;5077649;28;20049;-80
2021/05/23 06:14:00;;;;;;;2.72;0.52;;;12.50;99.90;;;;;;5075585;28;20483;-81
2021/05/23 06:16:27;;;;;;;2.03;0.50;;;12.60;99.90;;;;;;5075643;28;20136;-81
2021/05/23 06:18:53;;;;;;;2.95;0.50;;;12.90;99.90;;;;;;5075722;28;20113;-80
2021/05/23 06:21:20;;;;;;;2.28;0.43;;;13.10;99.90;;;;;;5074767;28;20421;-80
2021/05/23 06:23:47;;;;;;;0.70;0.38;;;13.00;99.90;;;;;;5074104;28;20052;-81
2021/05/23 06:26:14;;;;;;;1.95;0.50;;;12.80;99.90;;;;;;5076306;28;20102;-81
2021/05/23 06:28:42;;;;;;;1.90;0.63;;;12.80;99.90;;;;;;5074909;28;20079;-81
2021/05/23 06:31:09;;;;;;;1.15;0.50;;;12.90;99.90;;;;;;5074647;28;20044;-80
2021/05/23 06:33:36;;;;;;;1.83;0.60;;;12.80;99.90;;;;;;5075960;28;20466;-80
2021/05/23 06:36:03;;;;;;;1.27;0.57;;;12.80;99.90;;;;;;5075920;28;20169;-81
2021/05/23 06:38:30;;;;;;;5.15;0.82;;;13.10;99.90;;;;;;5075816;28;20071;-80
2021/05/23 06:40:57;;;;;;;2.67;0.70;;;13.30;99.90;;;;;;5076030;28;20052;-81
2021/05/23 06:43:24;;;;;;;3.72;0.75;;;13.90;99.90;;;;;;5077287;28;20084;-80
2021/05/23 06:45:50;;;;;;;1.45;0.57;;;14.30;99.90;;;;;;5077124;28;20045;-80
2021/05/23 06:48:17;;;;;;;2.17;0.43;;;14.00;99.90;;;;;;5077807;28;20156;-80
2021/05/23 06:50:45;;;;;;;1.48;0.68;;;13.90;99.90;;;;;;5075033;28;20045;-81
2021/05/23 06:53:11;;;;;;;8.65;0.90;;;13.60;99.90;;;;;;5076789;28;20558;-81
2021/05/23 06:55:38;;;;;;;5.70;0.70;;;13.30;99.90;;;;;;5078757;28;20492;-81
2021/05/23 06:58:05;;;;;;;2.47;0.65;;;13.30;99.90;;;;;;5077646;28;20056;-81
2021/05/23 07:00:32;;;;;;;2.13;0.52;;;13.40;99.90;;;;;;5075602;28;20466;-80
2021/05/23 07:02:59;;;;;;;0.68;0.40;;;13.80;99.90;;;;;;5075264;28;20075;-80
2021/05/23 07:05:25;;;;;;;2.88;0.70;;;14.50;99.90;;;;;;5074881;28;20064;-82
2021/05/23 07:07:52;;;;;;;3.25;0.60;;;14.70;99.90;;;;;;5075865;28;20070;-81
2021/05/23 07:10:19;;;;;;;2.28;0.57;;;14.40;99.90;;;;;;5076872;28;20425;-80
2021/05/23 07:12:46;;;;;;;1.40;0.70;;;14.10;99.90;;;;;;5075261;28;20041;-81
2021/05/23 07:15:12;;;;;;;1.95;0.43;;;13.60;99.90;;;;;;5076969;28;20072;-81
2021/05/23 07:17:39;;;;;;;1.85;0.50;;;13.30;99.90;;;;;;5075298;28;20072;-80
2021/05/23 07:20:07;;;;;;;0.93;0.45;;;13.00;99.90;;;;;;5075393;28;20083;-81
2021/05/23 07:22:33;;;;;;;2.28;0.50;;;12.70;99.90;;;;;;5076235;28;20128;-81
2021/05/23 07:25:00;;;;;;;3.95;0.70;;;12.50;99.90;;;;;;5077254;28;20049;-81
2021/05/23 07:27:27;;;;;;;3.45;0.88;;;12.60;99.90;;;;;;5078746;28;20068;-81
2021/05/23 07:29:54;;;;;;;1.90;0.95;;;13.00;99.90;;;;;;5077593;28;20076;-81
2021/05/23 07:32:21;;;;;;;1.85;0.70;;;14.50;99.90;;;;;;5076832;28;20132;-82
2021/05/23 07:34:48;;;;;;;1.88;0.60;;;15.00;99.90;;;;;;5077723;28;20049;-81
2021/05/23 07:37:15;;;;;;;1.75;0.90;;;15.80;99.90;;;;;;5078133;28;20063;-81
2021/05/23 07:39:44;;;;;;;1.80;0.60;;;16.40;99.90;;;;;;5076126;28;20044;-80
2021/05/23 07:42:11;;;;;;;0.55;0.47;;;17.40;99.90;;;;;;5076146;28;20045;-80
2021/05/23 07:44:38;;;;;;;0.73;0.70;;;17.70;99.90;;;;;;5076075;28;20087;-82
2021/05/23 07:47:05;;;;;;;1.45;0.47;;;17.50;99.90;;;;;;5076544;28;20044;-82
2021/05/23 07:49:32;;;;;;;2.75;0.50;;;17.40;99.90;;;;;;5078920;28;20044;-81
2021/05/23 07:51:58;;;;;;;1.85;0.70;;;16.60;99.90;;;;;;5081435;28;20048;-81
2021/05/23 07:54:25;;;;;;;3.03;0.70;;;15.70;99.90;;;;;;5081492;28;20040;-82
2021/05/23 07:56:52;;;;;;;1.95;0.63;;;15.00;99.90;;;;;;5081558;28;20048;-81
2021/05/23 07:59:19;;;;;;;2.53;0.55;;;14.60;99.90;;;;;;5082567;28;20056;-81
2021/05/23 08:01:45;;;;;;;0.60;0.50;;;14.90;99.90;;;;;;5081891;28;20110;-80
2021/05/23 08:04:12;;;;;;;1.13;0.47;;;16.00;99.90;;;;;;5079406;28;20080;-80
2021/05/23 08:06:39;;;;;;;2.53;0.60;;;17.70;99.90;;;;;;5076680;28;20079;-80
2021/05/23 08:09:06;;;;;;;1.52;0.57;;;19.10;99.90;;;;;;5078100;28;20466;-79
2021/05/23 08:11:33;;;;;;;0.60;0.50;;;19.20;97.10;;;;;;5076594;28;20083;-79
2021/05/23 08:14:00;;;;;;;3.60;0.70;;;18.10;99.90;;;;;;5075918;28;20481;-81
2021/05/23 08:16:27;;;;;;;6.93;0.65;;;17.40;99.90;;;;;;5077396;28;20103;-80
2021/05/23 08:18:53;;;;;;;1.58;0.50;;;17.50;99.90;;;;;;5077161;28;20095;-80
2021/05/23 08:21:20;;;;;;;6.75;0.85;;;16.50;99.90;;;;;;5076022;28;20080;-81
2021/05/23 08:23:47;;;;;;;4.38;0.57;;;15.70;99.90;;;;;;5077764;28;20055;-80
2021/05/23 08:26:13;;;;;;;1.90;0.60;;;15.00;99.90;;;;;;5077887;28;20477;-80
2021/05/23 08:28:40;;;;;;;1.15;0.50;;;14.50;99.90;;;;;;5075438;28;20072;-80
2021/05/23 08:31:07;;;;;;;1.48;0.40;;;14.30;99.90;;;;;;5077846;28;20044;-81
2021/05/23 08:33:34;;;;;;;2.60;0.70;;;15.00;99.90;;;;;;5075896;28;20053;-80
2021/05/23 08:36:01;;;;;;;4.18;0.45;;;16.80;99.90;;;;;;5076572;28;20125;-80
2021/05/23 08:38:28;;;;;;;1.13;0.40;;;18.40;99.90;;;;;;5080071;28;20072;-81
2021/05/23 08:40:59;;;;;;;1.05;0.47;;;19.70;99.60;;;;;;5090601;28;20049;-81
2021/05/23 08:43:27;;;;;;;1.02;0.28;;;21.70;91.50;;;;;;5081617;28;20052;-81
2021/05/23 08:45:54;;;;;;;0.57;0.30;;;22.80;84.80;;;;;;5076896;28;20045;-80
2021/05/23 08:48:22;;;;;;;0.30;0.30;;;24.00;73.60;;;;;;5076780;28;20083;-81
2021/05/23 08:50:49;;;;;;;6.22;0.70;;;23.20;70.70;;;;;;5078058;28;20041;-80
2021/05/23 08:53:16;;;;;;;3.72;0.57;;;22.60;72.20;;;;;;5079359;28;20064;-81
2021/05/23 08:55:45;;;;;;;6.55;0.80;;;22.50;70.90;;;;;;5080346;28;20056;-80
2021/05/23 08:58:12;;;;;;;1.38;0.28;;;21.70;69.50;;;;;;5079821;28;20074;-80
2021/05/23 09:00:39;;;;;;;0.63;0.40;;;20.70;75.10;;;;;;5079083;28;20052;-81
2021/05/23 09:03:10;;;;;;;9.35;0.82;;;20.10;74.80;;;;;;5077760;28;20049;-81
2021/05/23 09:05:38;;;;;;;2.88;0.20;;;18.90;77.00;;;;;;5079075;28;20076;-80
2021/05/23 09:08:13;;;;;;;1.55;0.40;;;18.40;82.40;;;;;;5078682;28;20068;-81
2021/05/23 09:10:41;;;;;;;6.68;0.70;;;18.60;79.90;;;;;;5078397;28;20072;-80
2021/05/23 09:13:08;;;;;;;4.25;0.60;;;19.10;79.80;;;;;;5078612;28;20520;-81
2021/05/23 09:15:34;;;;;;;6.50;0.50;;;20.00;77.60;;;;;;5079258;28;20045;-81
2021/05/23 09:18:12;;;;;;;1.73;0.22;;;20.60;75.70;;;;;;5078215;28;20135;-81
2021/05/23 09:20:41;;;;;;;0.30;0.20;;;20.40;75.00;;;;;;5079185;28;20052;-80
2021/05/23 09:23:14;;;;;;;2.75;0.38;;;20.90;73.50;;;;;;5078876;28;20076;-81
2021/05/23 09:25:41;;;;;;;0.90;0.30;;;20.10;73.70;;;;;;5078687;28;20098;-80
2021/05/23 09:28:08;;;;;;;0.93;0.20;;;21.30;74.90;;;;;;5078753;28;20045;-79
2021/05/23 09:30:37;;;;;;;1.95;0.40;;;23.30;69.00;;;;;;5076784;28;20071;-80
2021/05/23 09:33:06;;;;;;;0.60;0.20;;;23.60;65.00;;;;;;5078268;28;20044;-78
2021/05/23 09:35:41;;;;;;;1.05;0.25;;;23.50;62.90;;;;;;5077846;28;20044;-80
2021/05/23 09:38:08;;;;;;;3.72;0.38;;;21.80;64.20;;;;;;5076390;28;20094;-80
2021/05/23 09:40:40;;;;;;;0.93;0.20;;;21.20;67.30;;;;;;5075749;28;20505;-79
2021/05/23 09:43:09;;;;;;;0.60;0.20;;;21.40;67.20;;;;;;5076897;28;20049;-81
2021/05/23 09:45:45;;;;;;;1.65;0.35;;;21.70;67.80;;;;;;5075032;28;20515;-79
2021/05/23 09:48:34;;;;;;;1.52;0.25;;;20.80;68.70;;;;;;5076535;28;20057;-79
2021/05/23 09:51:14;;;;;;;1.02;0.20;;;19.60;71.50;;;;;;5075524;28;20045;-79
2021/05/23 09:53:42;;;;;;;1.17;0.40;;;19.80;71.30;;;;;;5076799;28;20048;-81
2021/05/23 09:56:13;;;;;;;1.10;0.30;;;19.50;71.80;;;;;;5077615;28;20508;-81
2021/05/23 09:58:43;;;;;;;1.15;0.25;;;20.20;70.30;;;;;;5077621;28;20078;-83
2021/05/23 10:01:23;;;;;;;0.30;0.30;;;20.20;69.80;;;;;;5079206;28;20083;-80
2021/05/23 10:03:50;;;;;;;0.52;0.20;;;20.10;68.00;;;;;;5078697;28;20048;-80
2021/05/23 10:06:29;;;;;;;0.75;0.30;;;20.00;70.20;;;;;;5076371;28;20103;-80
2021/05/23 10:08:57;;;;;;;2.13;0.40;;;19.90;69.20;;;;;;5076961;28;20551;-79
2021/05/23 10:11:27;;;;;;;1.08;0.30;;;19.80;69.50;;;;;;5074469;28;20197;-80
2021/05/23 10:13:54;;;;;;;0.43;0.30;;;19.20;70.40;;;;;;5074982;28;20493;-80
2021/05/23 10:16:22;;;;;;;1.98;0.50;;;18.10;72.70;;;;;;5075540;28;20059;-79
2021/05/23 10:18:49;;;;;;;1.17;0.30;;;17.10;77.80;;;;;;5075457;28;20052;-80
2021/05/23 10:21:16;;;;;;;0.98;0.20;;;16.70;83.10;;;;;;5075869;28;20072;-80
2021/05/23 10:23:53;;;;;;;2.83;0.30;;;16.80;87.70;;;;;;5074351;28;20127;-80
2021/05/23 10:26:26;;;;;;;11.98;1.10;;;17.00;84.40;;;;;;5077021;28;20455;-81
2021/05/23 10:28:54;;;;;;;2.00;0.63;;;17.00;84.70;;;;;;5074465;28;20048;-80
2021/05/23 10:31:33;;;;;;;0.28;0.28;;;17.30;87.90;;;;;;5076159;28;20714;-79
2021/05/23 10:34:00;;;;;;;0.95;0.20;;;19.00;84.50;;;;;;5075186;28;20055;-81
2021/05/23 10:36:32;;;;;;;0.32;0.22;;;21.20;76.70;;;;;;5074163;28;20539;-80
2021/05/23 10:39:01;;;;;;;0.50;0.30;;;22.30;67.40;;;;;;5075391;28;20058;-80
2021/05/23 10:41:28;;;;;;;1.98;0.45;;;21.60;67.70;;;;;;5075720;28;20049;-81
2021/05/23 10:44:07;;;;;;;1.02;0.38;;;22.00;66.90;;;;;;5078380;28;20053;-81
2021/05/23 10:46:51;;;;;;;2.08;0.35;;;20.50;67.70;;;;;;5076650;28;20083;-81
2021/05/23 10:49:19;;;;;;;0.50;0.30;;;19.90;72.70;;;;;;5075436;28;20098;-81
2021/05/23 10:51:54;;;;;;;1.95;0.30;;;19.50;75.60;;;;;;5078674;28;20052;-81
2021/05/23 10:54:21;;;;;;;0.68;0.25;;;18.80;75.40;;;;;;5077575;28;20049;-80
2021/05/23 10:56:59;;;;;;;2.28;0.50;;;19.10;77.20;;;;;;5076005;28;20064;-80
2021/05/23 10:59:31;;;;;;;2.28;0.77;;;20.70;72.50;;;;;;5076565;28;20075;-80
2021/05/23 11:01:58;;;;;;;0.68;0.45;;;21.40;70.40;;;;;;5075867;28;20098;-79
2021/05/23 11:04:40;;;;;;;1.10;0.70;;;22.40;64.60;;;;;;5077701;28;20099;-82
2021/05/23 11:07:09;;;;;;;1.40;0.40;;;21.20;65.10;;;;;;5076636;28;20098;-81
2021/05/23 11:09:37;;;;;;;0.20;0.20;;;22.50;61.40;;;;;;5076987;28;20058;-81
2021/05/23 11:12:08;;;;;;;3.25;0.28;;;23.40;59.00;;;;;;5075795;28;20045;-81
2021/05/23 11:14:35;;;;;;;2.05;0.30;;;22.70;57.70;;;;;;5076773;28;20071;-80
2021/05/23 11:17:06;;;;;;;0.93;0.20;;;21.30;59.70;;;;;;5076752;28;20066;-80
2021/05/23 11:19:32;;;;;;;0.95;0.43;;;20.00;61.00;;;;;;5075221;28;20044;-80
2021/05/23 11:21:59;;;;;;;1.33;0.30;;;18.30;64.70;;;;;;5077854;28;20044;-82
2021/05/23 11:24:31;;;;;;;1.40;0.20;;;17.20;69.00;;;;;;5077608;28;20044;-81
2021/05/23 11:27:11;;;;;;;7.20;1.45;;;16.60;75.60;;;;;;5079794;28;20087;-80
2021/05/23 11:29:47;;;;;;;3.78;0.80;;;16.20;81.50;;;;;;5080082;28;20114;-80
2021/05/23 11:32:15;;;;;;;1.20;0.40;;;16.70;86.00;;;;;;5080116;28;20051;-81
2021/05/23 11:34:43;;;;;;;0.20;0.20;;;19.00;79.20;;;;;;5080284;28;20040;-80
2021/05/23 11:37:10;;;;;;;1.20;0.22;;;21.30;72.80;;;;;;5080213;28;20072;-79
2021/05/23 11:39:37;;;;;;;0.50;0.30;;;21.80;64.80;;;;;;5080820;28;20084;-81
2021/05/23 11:42:05;;;;;;;0.85;0.30;;;20.60;62.60;;;;;;5079166;28;20048;-81
2021/05/23 11:44:40;;;;;;;0.30;0.22;;;20.20;63.30;;;;;;5078989;28;20102;-80
2021/05/23 11:47:07;;;;;;;2.45;0.40;;;19.90;65.30;;;;;;5078617;28;20469;-80
2021/05/23 11:49:37;;;;;;;2.63;0.30;;;19.20;64.10;;;;;;5078526;28;20097;-81
2021/05/23 11:52:06;;;;;;;2.28;0.20;;;18.80;64.70;;;;;;5079800;28;20044;-81
2021/05/23 11:54:33;;;;;;;0.40;0.20;;;18.80;65.60;;;;;;5079415;28;20532;-80
2021/05/23 11:57:00;;;;;;;0.20;0.20;;;18.60;66.50;;;;;;5080385;28;20049;-81
2021/05/23 11:59:32;;;;;;;1.90;0.60;;;18.60;69.20;;;;;;5081956;28;20076;-82
2021/05/23 12:02:00;;;;;;;2.72;0.63;;;19.00;70.30;;;;;;5079363;28;20052;-79
2021/05/23 12:04:28;;;;;;;0.43;0.10;;;19.20;65.20;;;;;;5080387;28;20106;-80
2021/05/23 12:06:56;;;;;;;1.30;0.20;;;19.10;64.10;;;;;;5079965;28;20484;-80
2021/05/23 12:09:25;;;;;;;1.33;0.30;;;18.80;63.20;;;;;;5080503;28;20045;-81
2021/05/23 12:11:51;;;;;;;0.52;0.20;;;18.40;65.10;;;;;;5080440;28;20049;-79
2021/05/23 12:14:33;;;;;;;0.95;0.30;;;17.90;67.00;;;;;;5080195;28;20071;-80
2021/05/23 12:17:30;;;;;;;0.65;0.30;;;17.50;69.10;;;;;;5081001;28;20084;-80
2021/05/23 12:19:59;;;;;;;0.85;0.40;;;17.10;70.30;;;;;;5079552;28;20053;-81
2021/05/23 12:22:35;;;;;;;0.73;0.30;;;16.80;72.70;;;;;;5079675;28;20048;-80
2021/05/23 12:25:06;;;;;;;1.08;0.30;;;16.70;75.30;;;;;;5080877;28;20055;-80
2021/05/23 12:27:40;;;;;;;1.65;0.22;;;16.70;74.80;;;;;;5081791;28;20052;-81
2021/05/23 12:30:25;;;;;;;0.68;0.40;;;17.10;73.80;;;;;;5086080;28;20398;-82
2021/05/23 12:32:57;;;;;;;0.75;0.32;;;17.30;73.50;;;;;;5082938;28;20048;-81
2021/05/23 12:35:26;;;;;;;0.47;0.30;;;17.80;72.40;;;;;;5078381;28;20048;-80
2021/05/23 12:38:05;;;;;;;2.50;0.43;;;18.40;76.00;;;;;;5078354;28;20044;-81
2021/05/23 12:40:42;;;;;;;0.93;0.40;;;19.00;67.70;;;;;;5079129;28;20055;-81
2021/05/23 12:43:11;;;;;;;2.13;0.65;;;19.00;65.60;;;;;;5080263;28;20569;-81
2021/05/23 12:45:39;;;;;;;0.52;0.30;;;18.40;66.40;;;;;;5079820;28;20091;-80
2021/05/23 12:48:08;;;;;;;1.02;0.30;;;18.30;68.40;;;;;;5079440;28;20089;-79
2021/05/23 12:50:50;;;;;;;1.48;1.00;;;18.20;68.30;;;;;;5077994;28;20044;-81
2021/05/23 12:53:28;;;;;;;0.20;0.20;;;18.00;69.20;;;;;;5081061;28;20044;-82
2021/05/23 12:56:07;;;;;;;0.40;0.22;;;17.60;71.10;;;;;;5080479;28;20047;-81
2021/05/23 12:58:55;;;;;;;5.03;0.70;;;17.70;70.60;;;;;;5080321;28;20083;-80